Time;durP1;ratioP1;P1;durP2;ratioP2;P2;SDS_P1;SDS_P2;PMS_P1;PMS_P2;Temp;Humidity;BMP_temperature;BMP_pressure;BME280_temperature;BME280_humidity;BME280_pressure;Samples;Min_cycle;Max_cycle;Signal;HPM_P1;HPM_P2
2022/08/31 00:04:01;;;;;;;8.33;6.70;;;;;;;24.37;100.00;101329.00;2088060;28;20196;-62
2022/08/31 00:05:02;;;;;;;7.53;6.40;;;;;;;24.36;100.00;101324.63;2088664;28;20176;-62
2022/08/31 00:06:04;;;;;;;8.77;6.90;;;;;;;24.36;100.00;101329.53;2087258;28;20198;-63
2022/08/31 00:07:04;;;;;;;9.57;6.47;;;;;;;24.35;100.00;101320.25;2088184;28;20188;-63
2022/08/31 00:08:06;;;;;;;7.37;6.63;;;;;;;24.37;100.00;101326.16;2088093;28;20192;-63
2022/08/31 00:09:07;;;;;;;7.60;6.80;;;;;;;24.06;100.00;101272.53;2088343;28;20222;-63
2022/08/31 00:10:13;;;;;;;7.30;6.60;;;;;;;24.38;100.00;101313.56;2088389;28;20192;-63
2022/08/31 00:11:15;;;;;;;8.87;6.67;;;;;;;24.24;100.00;101291.13;2086899;28;20192;-62
2022/08/31 00:12:17;;;;;;;9.07;6.33;;;;;;;24.42;100.00;101316.91;2088325;28;20255;-62
2022/08/31 00:13:17;;;;;;;7.80;6.60;;;;;;;24.41;100.00;101315.38;2088005;28;20190;-62
2022/08/31 00:14:18;;;;;;;7.47;6.70;;;;;;;23.38;100.00;101158.03;2088779;28;20203;-62
2022/08/31 00:15:20;;;;;;;9.23;6.57;;;;;;;24.39;100.00;101323.63;2087517;28;20233;-62
2022/08/31 00:16:22;;;;;;;8.90;7.10;;;;;;;24.36;100.00;101309.72;2087675;28;20245;-62
2022/08/31 00:17:22;;;;;;;8.10;6.60;;;;;;;24.36;100.00;101313.28;2088016;28;20196;-62
2022/08/31 00:18:23;;;;;;;9.13;6.80;;;;;;;24.40;100.00;101315.88;2088180;28;20742;-62
2022/08/31 00:19:24;;;;;;;9.53;6.80;;;;;;;24.31;100.00;101301.97;2087923;28;20202;-62
2022/08/31 00:20:27;;;;;;;11.33;6.90;;;;;;;24.40;100.00;101316.66;2088129;28;20172;-62
2022/08/31 00:21:28;;;;;;;7.67;6.80;;;;;;;24.38;100.00;101321.28;2088418;28;20239;-62
2022/08/31 00:22:28;;;;;;;9.53;6.37;;;;;;;24.40;100.00;101315.88;2088517;28;20198;-62
2022/08/31 00:23:28;;;;;;;8.47;6.30;;;;;;;24.35;100.00;101310.97;2088750;28;20334;-63
2022/08/31 00:24:30;;;;;;;6.90;6.20;;;;;;;24.34;100.00;101318.72;2088057;28;20226;-63
2022/08/31 00:25:32;;;;;;;7.43;6.27;;;;;;;23.64;100.00;101210.34;2087834;28;20678;-63
2022/08/31 00:26:34;;;;;;;8.40;6.63;;;;;;;24.30;100.00;101312.50;2087854;28;20237;-62
2022/08/31 00:27:34;;;;;;;9.10;6.67;;;;;;;24.30;100.00;101312.50;2086912;28;20653;-63
2022/08/31 00:28:35;;;;;;;8.90;6.77;;;;;;;24.30;100.00;101314.59;2087033;28;20630;-62
2022/08/31 00:29:35;;;;;;;7.70;6.77;;;;;;;24.21;100.00;101298.56;2087255;28;20689;-63
2022/08/31 00:30:36;;;;;;;8.53;6.57;;;;;;;23.78;100.00;101236.88;2086720;28;20363;-63
2022/08/31 00:31:37;;;;;;;7.27;6.37;;;;;;;23.72;100.00;101219.09;2088210;28;20242;-62
2022/08/31 00:32:38;;;;;;;9.50;6.60;;;;;;;24.32;100.00;101301.47;2087787;28;20199;-62
2022/08/31 00:33:39;;;;;;;8.67;6.67;;;;;;;24.24;100.00;101294.72;2087310;28;20227;-62
2022/08/31 00:34:40;;;;;;;9.47;6.53;;;;;;;24.38;100.00;101307.13;2087296;28;20188;-62
2022/08/31 00:35:41;;;;;;;9.10;6.60;;;;;;;24.38;100.00;101296.56;2087622;28;20262;-62
2022/08/31 00:36:42;;;;;;;7.20;6.50;;;;;;;24.41;100.00;101304.03;2086825;28;20614;-62
2022/08/31 00:37:43;;;;;;;10.10;6.70;;;;;;;23.99;100.00;101230.56;2087651;28;20192;-63
2022/08/31 00:38:43;;;;;;;10.13;6.90;;;;;;;24.46;100.00;101303.28;2088067;28;20204;-63
2022/08/31 00:39:44;;;;;;;7.63;6.50;;;;;;;24.50;100.00;101305.84;2088000;28;20183;-62
2022/08/31 00:40:46;;;;;;;8.50;6.70;;;;;;;24.50;100.00;101292.47;2088662;28;20180;-63
2022/08/31 00:41:47;;;;;;;8.27;7.10;;;;;;;24.46;100.00;101303.28;2087672;28;20570;-63
2022/08/31 00:42:47;;;;;;;9.73;6.50;;;;;;;24.46;100.00;101308.19;2088164;28;20250;-62
2022/08/31 00:43:54;;;;;;;8.30;6.60;;;;;;;24.45;100.00;101296.06;2088057;28;20192;-63
2022/08/31 00:44:54;;;;;;;8.17;6.57;;;;;;;24.44;100.00;101308.69;2087875;28;20516;-62
2022/08/31 00:45:55;;;;;;;8.50;6.87;;;;;;;24.44;100.00;101305.84;2087883;28;20187;-62
2022/08/31 00:46:55;;;;;;;7.63;6.83;;;;;;;24.41;100.00;101301.19;2087311;28;20187;-62
2022/08/31 00:47:56;;;;;;;8.30;6.57;;;;;;;24.44;100.00;101305.06;2087274;28;20180;-63
2022/08/31 00:49:20;;;;;;;8.90;6.60;;;;;;;24.42;100.00;101302.75;2087634;28;20176;-62
2022/08/31 00:50:23;;;;;;;8.53;7.23;;;;;;;24.44;100.00;101300.19;2087976;28;20194;-62
2022/08/31 00:51:26;;;;;;;8.43;6.67;;;;;;;24.42;100.00;101297.06;2086942;28;20180;-63
2022/08/31 00:52:32;;;;;;;8.70;6.80;;;;;;;24.43;100.00;101306.38;2087999;28;20220;-62
2022/08/31 00:53:33;;;;;;;7.87;6.00;;;;;;;23.93;100.00;101237.47;2088677;28;20655;-63
2022/08/31 00:54:40;;;;;;;9.70;6.50;;;;;;;24.33;100.00;101322.03;2085105;28;20644;-62
2022/08/31 00:55:41;;;;;;;7.83;6.67;;;;;;;24.24;100.00;101313.78;2087835;28;20184;-63
2022/08/31 00:56:43;;;;;;;7.33;6.53;;;;;;;24.18;100.00;101329.97;2087650;28;20701;-62
2022/08/31 00:57:47;;;;;;;8.80;7.00;;;;;;;24.20;100.00;101318.94;2087337;28;20371;-62
2022/08/31 00:58:50;;;;;;;9.87;6.97;;;;;;;24.08;100.00;101301.13;2088004;28;20195;-63
2022/08/31 00:59:50;;;;;;;8.20;6.60;;;;;;;23.41;100.00;101205.09;2088145;28;20273;-63
2022/08/31 01:00:51;;;;;;;8.33;6.97;;;;;;;23.88;100.00;101283.50;2086853;28;20204;-62
2022/08/31 01:01:52;;;;;;;8.73;7.33;;;;;;;24.12;100.00;101321.47;2087944;28;20186;-63
2022/08/31 01:02:55;;;;;;;8.07;6.97;;;;;;;24.13;100.00;101325.06;2087845;28;20258;-62
2022/08/31 01:03:57;;;;;;;8.17;6.90;;;;;;;24.07;100.00;101324.28;2088304;28;20563;-63
2022/08/31 01:04:57;;;;;;;7.37;6.63;;;;;;;24.07;100.00;101321.44;2088148;28;20188;-62
2022/08/31 01:05:58;;;;;;;10.60;7.43;;;;;;;24.03;100.00;101332.22;2087909;28;20195;-63
2022/08/31 01:07:00;;;;;;;8.97;7.03;;;;;;;23.99;100.00;101331.69;2087534;28;20271;-63
2022/08/31 01:08:03;;;;;;;8.03;7.23;;;;;;;23.94;100.00;101333.22;2087948;28;20190;-63
2022/08/31 01:09:06;;;;;;;8.20;7.37;;;;;;;23.92;100.00;101329.34;2086765;28;20279;-63
2022/08/31 01:10:08;;;;;;;9.27;7.00;;;;;;;23.92;100.00;101338.63;2088095;28;20192;-62
2022/08/31 01:11:08;;;;;;;8.43;7.00;;;;;;;23.94;100.00;101338.09;2088205;28;20680;-63
2022/08/31 01:12:11;;;;;;;8.20;7.20;;;;;;;23.97;100.00;101337.09;2086937;28;20557;-63
2022/08/31 01:13:14;;;;;;;8.50;7.10;;;;;;;23.66;100.00;101303.22;2090153;28;20184;-63
2022/08/31 01:14:14;;;;;;;9.27;6.90;;;;;;;23.97;100.00;101332.22;2088817;28;20211;-63
2022/08/31 01:15:16;;;;;;;8.70;7.50;;;;;;;23.97;100.00;101335.06;2088701;28;20198;-62
2022/08/31 01:16:33;;;;;;;12.93;7.60;;;;;;;23.34;100.00;101231.78;2088392;28;20191;-63
2022/08/31 01:17:35;;;;;;;10.10;7.27;;;;;;;23.97;100.00;101318.06;2088354;28;20569;-62
2022/08/31 01:18:36;;;;;;;8.50;6.73;;;;;;;23.63;100.00;101273.88;2088456;28;20234;-62
2022/08/31 01:20:00;;;;;;;10.67;7.90;;;;;;;24.02;100.00;101330.69;2087879;28;20184;-63
2022/08/31 01:21:01;;;;;;;10.73;7.57;;;;;;;24.04;100.00;101334.56;2089476;28;20184;-62
2022/08/31 01:22:29;;;;;;;12.77;7.03;;;;;;;24.00;100.00;101342.53;2089681;28;20191;-63
2022/08/31 01:23:33;;;;;;;9.63;7.20;;;;;;;23.34;100.00;101237.44;2088832;28;20234;-62
2022/08/31 01:24:35;;;;;;;9.70;7.40;;;;;;;24.01;100.00;101341.22;2089380;28;20184;-63
2022/08/31 01:25:38;;;;;;;10.57;7.37;;;;;;;24.03;100.00;101337.91;2089231;28;20275;-63
2022/08/31 01:26:39;;;;;;;8.70;6.73;;;;;;;24.02;100.00;101339.19;2088437;28;20255;-63
2022/08/31 01:27:40;;;;;;;9.63;7.50;;;;;;;23.05;100.00;101191.75;2089232;28;20199;-63
2022/08/31 01:28:41;;;;;;;10.27;7.53;;;;;;;23.53;100.00;101272.53;2089088;28;20199;-63
2022/08/31 01:29:42;;;;;;;9.93;7.63;;;;;;;23.95;100.00;101339.69;2089811;28;20643;-62
2022/08/31 01:30:55;;;;;;;9.13;7.50;;;;;;;23.98;100.00;101339.44;2088386;28;20195;-63
2022/08/31 01:31:57;;;;;;;13.70;7.87;;;;;;;23.86;100.00;101329.31;2088299;28;20657;-63
2022/08/31 01:32:58;;;;;;;8.37;7.53;;;;;;;23.25;100.00;101234.06;2087959;28;20180;-62
2022/08/31 01:33:59;;;;;;;9.30;7.93;;;;;;;23.90;100.00;101340.44;2089041;28;20223;-63
2022/08/31 01:35:00;;;;;;;9.93;7.20;;;;;;;23.76;100.00;101316.66;2089684;28;20184;-63
2022/08/31 01:36:01;;;;;;;8.47;7.23;;;;;;;23.86;100.00;101334.97;2089618;28;20650;-63
2022/08/31 01:37:02;;;;;;;8.67;7.27;;;;;;;23.86;100.00;101340.63;2089335;28;20173;-62
2022/08/31 01:38:03;;;;;;;9.30;7.77;;;;;;;23.89;100.00;101344.53;2089348;28;20567;-62
2022/08/31 01:39:05;;;;;;;8.97;7.23;;;;;;;23.89;100.00;101342.47;2089378;28;20184;-62
2022/08/31 01:40:06;;;;;;;10.03;7.60;;;;;;;23.89;100.00;101339.63;2089531;28;20271;-63
2022/08/31 01:41:08;;;;;;;8.63;7.73;;;;;;;23.88;100.00;101340.91;2089170;28;20666;-63
2022/08/31 01:42:09;;;;;;;12.37;8.03;;;;;;;23.86;100.00;101340.63;2089387;28;20184;-63
2022/08/31 01:43:09;;;;;;;9.57;7.23;;;;;;;23.85;100.00;101339.06;2089515;28;20214;-63
2022/08/31 01:44:15;;;;;;;9.23;7.40;;;;;;;23.81;100.00;101344.22;2089998;28;20250;-62
2022/08/31 01:45:16;;;;;;;9.17;7.63;;;;;;;23.83;100.00;101352.19;2088387;28;20172;-62
2022/08/31 01:46:16;;;;;;;11.33;7.60;;;;;;;23.80;100.00;101341.88;2088523;28;20654;-63
2022/08/31 01:47:17;;;;;;;9.60;7.20;;;;;;;23.77;100.00;101351.38;2089285;28;20200;-62
2022/08/31 01:48:18;;;;;;;10.70;7.67;;;;;;;23.72;100.00;101350.06;2088915;28;20751;-63
2022/08/31 01:49:20;;;;;;;9.87;7.40;;;;;;;22.89;100.00;101235.59;2089379;28;20188;-63
2022/08/31 01:50:21;;;;;;;8.87;7.47;;;;;;;23.24;100.00;101281.34;2089356;28;20196;-63
2022/08/31 01:51:21;;;;;;;8.47;7.40;;;;;;;23.60;100.00;101336.38;2089336;28;20180;-62
2022/08/31 01:52:22;;;;;;;11.23;7.60;;;;;;;23.61;100.00;101352.84;2088936;28;20259;-63
2022/08/31 01:53:23;;;;;;;11.77;7.83;;;;;;;23.63;100.00;101350.28;2089742;28;20181;-63
2022/08/31 01:54:25;;;;;;;9.57;8.03;;;;;;;23.56;100.00;101347.91;2089123;28;20262;-63
2022/08/31 01:55:26;;;;;;;8.93;7.93;;;;;;;22.50;100.00;101199.81;2088511;28;20306;-63
2022/08/31 01:56:30;;;;;;;8.67;7.77;;;;;;;23.51;100.00;101356.34;2088971;28;20697;-62
2022/08/31 01:57:31;;;;;;;9.67;7.87;;;;;;;23.48;100.00;101358.16;2088627;28;20196;-63
2022/08/31 01:58:31;;;;;;;10.77;7.80;;;;;;;23.48;100.00;101358.16;2089514;28;20650;-63
2022/08/31 01:59:32;;;;;;;8.70;7.80;;;;;;;23.49;100.00;101356.84;2088953;28;20298;-63
2022/08/31 02:00:33;;;;;;;10.27;7.87;;;;;;;23.48;100.00;101352.47;2088227;28;20180;-62
2022/08/31 02:01:39;;;;;;;9.27;7.97;;;;;;;23.51;100.00;101359.19;2089270;28;20184;-63
2022/08/31 02:02:40;;;;;;;8.40;7.60;;;;;;;23.52;100.00;101361.53;2089245;28;20198;-62
2022/08/31 02:03:41;;;;;;;10.40;7.90;;;;;;;23.52;100.00;101358.69;2089797;28;20176;-62
2022/08/31 02:04:41;;;;;;;9.33;7.70;;;;;;;23.51;100.00;101351.50;2088696;28;20227;-63
2022/08/31 02:05:42;;;;;;;11.43;8.33;;;;;;;23.53;100.00;101357.41;2088084;28;20197;-63
2022/08/31 02:06:46;;;;;;;14.37;8.87;;;;;;;23.54;100.00;101358.94;2088313;28;20202;-63
2022/08/31 02:07:46;;;;;;;16.53;8.60;;;;;;;23.50;100.00;101349.16;2088651;28;20207;-63
2022/08/31 02:08:47;;;;;;;17.03;8.63;;;;;;;23.55;100.00;101359.75;2089096;28;20284;-63
2022/08/31 02:09:47;;;;;;;23.50;8.50;;;;;;;23.59;100.00;101363.88;2088735;28;20195;-62
2022/08/31 02:10:48;;;;;;;19.60;8.33;;;;;;;23.59;100.00;101354.63;2088431;28;20177;-63
2022/08/31 02:11:49;;;;;;;15.43;8.20;;;;;;;23.60;100.00;101359.00;2089646;28;20669;-62
2022/08/31 02:12:51;;;;;;;11.63;8.00;;;;;;;23.61;100.00;101364.16;2088979;28;20640;-62
2022/08/31 02:13:51;;;;;;;12.73;7.87;;;;;;;23.60;100.00;101359.00;2089054;28;20184;-63
2022/08/31 02:14:52;;;;;;;12.07;7.93;;;;;;;23.65;100.00;101369.59;2089068;28;20196;-62
2022/08/31 02:15:52;;;;;;;10.83;8.03;;;;;;;23.28;100.00;101315.84;2088621;28;20730;-62
2022/08/31 02:16:53;;;;;;;14.93;7.93;;;;;;;23.64;100.00;101362.38;2088732;28;20661;-62
2022/08/31 02:17:57;;;;;;;15.83;8.73;;;;;;;23.61;100.00;101367.00;2089117;28;20219;-62
2022/08/31 02:18:57;;;;;;;13.70;7.90;;;;;;;23.62;100.00;101365.69;2088525;28;20191;-63
2022/08/31 02:19:58;;;;;;;15.30;8.60;;;;;;;23.63;100.00;101361.59;2089307;28;20180;-62
2022/08/31 02:20:58;;;;;;;11.60;7.67;;;;;;;23.63;100.00;101366.47;2089716;28;20670;-62
2022/08/31 02:21:59;;;;;;;11.83;7.50;;;;;;;23.67;100.00;101367.78;2088484;28;20566;-62
2022/08/31 02:23:02;;;;;;;9.93;7.80;;;;;;;23.66;100.00;101356.97;2089069;28;20194;-62
2022/08/31 02:24:04;;;;;;;11.30;7.07;;;;;;;23.64;100.00;101357.47;2087790;28;20180;-62
2022/08/31 02:25:05;;;;;;;9.47;7.33;;;;;;;23.61;100.00;101354.88;2088603;28;20188;-63
2022/08/31 02:26:06;;;;;;;9.13;7.33;;;;;;;22.87;100.00;101243.03;2088532;28;20196;-63
2022/08/31 02:27:08;;;;;;;9.60;8.07;;;;;;;23.58;100.00;101355.88;2088320;28;20261;-63
2022/08/31 02:28:12;;;;;;;11.17;7.60;;;;;;;23.55;100.00;101357.66;2088720;28;20271;-62
2022/08/31 02:29:13;;;;;;;10.70;7.73;;;;;;;23.45;100.00;101358.38;2088614;28;20184;-62
2022/08/31 02:30:16;;;;;;;10.10;7.60;;;;;;;23.40;100.00;101348.59;2087077;28;20263;-63
2022/08/31 02:31:17;;;;;;;13.73;8.83;;;;;;;23.43;100.00;101366.59;2089082;28;20712;-62
2022/08/31 02:32:19;;;;;;;12.90;7.97;;;;;;;23.42;100.00;101351.69;2089437;28;20648;-62
2022/08/31 02:33:20;;;;;;;11.17;7.37;;;;;;;23.46;100.00;101355.06;2088976;28;20192;-63
2022/08/31 02:34:21;;;;;;;14.37;7.57;;;;;;;23.48;100.00;101358.16;2088584;28;20719;-62
2022/08/31 02:35:21;;;;;;;13.37;7.60;;;;;;;23.46;100.00;101352.22;2088082;28;20250;-62
2022/08/31 02:36:22;;;;;;;15.07;8.10;;;;;;;23.45;100.00;101353.50;2088391;28;20207;-62
2022/08/31 02:37:22;;;;;;;11.07;7.73;;;;;;;23.46;100.00;101351.44;2088602;28;20629;-62
2022/08/31 02:38:23;;;;;;;13.07;8.37;;;;;;;23.36;100.00;101339.56;2089016;28;20184;-63
2022/08/31 02:39:23;;;;;;;9.57;7.80;;;;;;;23.40;100.00;101354.25;2088420;28;20188;-62
2022/08/31 02:40:24;;;;;;;11.77;8.40;;;;;;;22.73;100.00;101250.34;2088453;28;20279;-62
2022/08/31 02:41:24;;;;;;;10.73;8.30;;;;;;;23.38;100.00;101345.47;2088934;28;20203;-62
2022/08/31 02:42:25;;;;;;;13.03;8.17;;;;;;;23.36;100.00;101348.03;2088525;28;20627;-63
2022/08/31 02:43:26;;;;;;;16.03;8.33;;;;;;;22.63;100.00;101234.09;2088534;28;20184;-63
2022/08/31 02:44:26;;;;;;;11.77;7.83;;;;;;;23.35;100.00;101352.16;2088488;28;20219;-62
2022/08/31 02:45:26;;;;;;;8.47;7.67;;;;;;;23.37;100.00;101351.63;2087972;28;20265;-62
2022/08/31 02:46:27;;;;;;;9.13;7.63;;;;;;;23.28;100.00;101337.69;2088850;28;20403;-62
2022/08/31 02:47:29;;;;;;;12.33;8.43;;;;;;;22.90;100.00;101290.84;2089500;28;20176;-62
2022/08/31 02:48:30;;;;;;;9.47;8.47;;;;;;;23.34;100.00;101355.47;2088050;28;20215;-62
2022/08/31 02:49:32;;;;;;;11.93;8.73;;;;;;;23.31;100.00;101360.09;2088521;28;20191;-62
2022/08/31 02:50:32;;;;;;;11.27;8.17;;;;;;;23.29;100.00;101359.78;2088920;28;20212;-63
2022/08/31 02:51:33;;;;;;;10.33;8.43;;;;;;;23.31;100.00;101357.25;2087417;28;20192;-62
2022/08/31 02:52:34;;;;;;;9.90;8.47;;;;;;;23.29;100.00;101365.44;2088927;28;20249;-63
2022/08/31 02:53:35;;;;;;;11.03;8.43;;;;;;;23.09;100.00;101345.72;2088846;28;20180;-63
2022/08/31 02:54:36;;;;;;;11.80;8.50;;;;;;;23.19;100.00;101368.97;2087980;28;20299;-63
2022/08/31 02:55:37;;;;;;;9.10;8.20;;;;;;;23.17;100.00;101377.13;2088927;28;20184;-62
2022/08/31 02:56:37;;;;;;;9.97;8.40;;;;;;;23.08;100.00;101363.22;2087052;28;20192;-63
2022/08/31 02:57:38;;;;;;;9.63;8.17;;;;;;;23.10;100.00;101369.91;2088378;28;20274;-62
2022/08/31 02:58:39;;;;;;;10.63;7.57;;;;;;;23.15;100.00;101371.22;2088855;28;20601;-63
2022/08/31 02:59:39;;;;;;;11.13;7.87;;;;;;;23.14;100.00;101373.25;2087935;28;20553;-62
2022/08/31 03:00:44;;;;;;;8.77;7.83;;;;;;;23.16;100.00;101378.41;2088056;28;20188;-62
2022/08/31 03:01:46;;;;;;;9.33;7.87;;;;;;;23.19;100.00;101368.97;2087923;28;20901;-63
2022/08/31 03:02:48;;;;;;;12.47;7.80;;;;;;;23.17;100.00;101372.28;2088144;28;20191;-63
2022/08/31 03:03:49;;;;;;;9.30;7.60;;;;;;;22.33;100.00;101244.06;2087664;28;20181;-62
2022/08/31 03:04:49;;;;;;;9.00;7.90;;;;;;;23.13;100.00;101365.31;2088476;28;20283;-62
2022/08/31 03:05:50;;;;;;;10.17;7.83;;;;;;;23.13;100.00;101374.53;2088699;28;20192;-63
2022/08/31 03:06:51;;;;;;;10.83;8.20;;;;;;;22.68;100.00;101316.06;2088691;28;20196;-63
2022/08/31 03:07:51;;;;;;;9.97;8.20;;;;;;;23.01;100.00;101377.78;2087449;28;20609;-63
2022/08/31 03:08:52;;;;;;;9.23;7.40;;;;;;;22.87;100.00;101378.69;2088835;28;20287;-62
2022/08/31 03:09:53;;;;;;;10.47;7.97;;;;;;;22.78;100.00;101359.81;2088456;28;20322;-63
2022/08/31 03:10:54;;;;;;;9.23;8.33;;;;;;;22.89;100.00;101378.97;2088803;28;20225;-63
2022/08/31 03:11:54;;;;;;;9.77;8.17;;;;;;;22.92;100.00;101372.31;2088745;28;20715;-62
2022/08/31 03:12:55;;;;;;;12.97;8.80;;;;;;;22.93;100.00;101371.78;2089365;28;20259;-63
2022/08/31 03:13:56;;;;;;;14.13;8.93;;;;;;;22.94;100.00;101375.41;2088296;28;20266;-62
2022/08/31 03:14:56;;;;;;;12.77;8.90;;;;;;;22.94;100.00;101373.38;2087365;28;20215;-63
2022/08/31 03:15:57;;;;;;;10.90;8.53;;;;;;;22.92;100.00;101370.25;2088097;28;20661;-62
2022/08/31 03:16:57;;;;;;;10.27;8.17;;;;;;;22.94;100.00;101370.53;2087770;28;20192;-62
2022/08/31 03:17:58;;;;;;;9.47;7.50;;;;;;;22.93;100.00;101363.31;2088031;28;20192;-62
2022/08/31 03:18:58;;;;;;;13.00;8.33;;;;;;;22.93;100.00;101371.78;2087037;28;20184;-63
2022/08/31 03:20:02;;;;;;;11.43;8.77;;;;;;;22.92;100.00;101369.50;2088017;28;20607;-62
2022/08/31 03:21:02;;;;;;;8.50;7.70;;;;;;;22.91;100.00;101365.09;2088554;28;20176;-62
2022/08/31 03:22:03;;;;;;;9.53;8.30;;;;;;;22.93;100.00;101368.22;2089061;28;20271;-62
2022/08/31 03:23:04;;;;;;;10.43;7.87;;;;;;;22.90;100.00;101360.72;2088670;28;20216;-62
2022/08/31 03:24:05;;;;;;;9.10;7.97;;;;;;;22.92;100.00;101370.25;2086685;28;20246;-62
2022/08/31 03:25:07;;;;;;;10.50;7.90;;;;;;;22.36;100.00;101269.25;2088213;28;20261;-62
2022/08/31 03:26:07;;;;;;;9.90;8.30;;;;;;;22.34;100.00;101285.91;2088624;28;20204;-62
2022/08/31 03:27:08;;;;;;;10.63;8.63;;;;;;;22.87;100.00;101359.66;2087869;28;20227;-63
2022/08/31 03:28:09;;;;;;;11.27;7.70;;;;;;;22.87;100.00;101358.91;2088140;28;20226;-62
2022/08/31 03:29:10;;;;;;;12.60;8.33;;;;;;;22.86;100.00;101360.94;2088392;28;20229;-63
2022/08/31 03:30:14;;;;;;;10.70;8.43;;;;;;;22.90;100.00;101363.53;2089158;28;20747;-62
2022/08/31 03:31:14;;;;;;;12.40;8.30;;;;;;;22.89;100.00;101365.59;2088558;28;20176;-63
2022/08/31 03:32:15;;;;;;;10.77;8.17;;;;;;;22.74;100.00;101370.59;2087118;28;20673;-62
2022/08/31 03:33:15;;;;;;;11.63;8.73;;;;;;;22.75;100.00;101372.13;2087147;28;20255;-62
2022/08/31 03:34:16;;;;;;;9.73;8.73;;;;;;;22.74;100.00;101372.63;2087999;28;20242;-62
2022/08/31 03:35:17;;;;;;;10.57;9.53;;;;;;;22.70;100.00;101378.50;2087505;28;20196;-63
2022/08/31 03:36:18;;;;;;;9.80;8.80;;;;;;;22.24;100.00;101307.13;2087382;28;20275;-62
2022/08/31 03:37:20;;;;;;;11.10;9.90;;;;;;;22.53;100.00;101348.53;2087615;28;20230;-62
2022/08/31 03:38:21;;;;;;;12.33;9.67;;;;;;;22.63;100.00;101372.53;2088435;28;20212;-62
2022/08/31 03:39:22;;;;;;;21.47;10.17;;;;;;;22.59;100.00;101377.63;2088163;28;20195;-62
2022/08/31 03:40:22;;;;;;;10.70;9.53;;;;;;;22.54;100.00;101378.31;2088470;28;20725;-62
2022/08/31 03:41:24;;;;;;;10.77;9.67;;;;;;;22.50;100.00;101375.72;2088142;28;20191;-62
2022/08/31 03:42:26;;;;;;;13.57;9.60;;;;;;;22.55;100.00;101379.88;2087702;28;20196;-62
2022/08/31 03:43:26;;;;;;;13.50;9.47;;;;;;;22.33;100.00;101351.34;2088073;28;21021;-62
2022/08/31 03:44:27;;;;;;;10.77;9.60;;;;;;;22.54;100.00;101392.44;2088124;28;20840;-62
2022/08/31 03:45:30;;;;;;;11.37;9.53;;;;;;;21.80;100.00;101264.25;2087730;28;20180;-63
2022/08/31 03:46:32;;;;;;;14.27;9.50;;;;;;;21.89;100.00;101271.78;2087681;28;20232;-62
2022/08/31 03:47:33;;;;;;;12.10;9.50;;;;;;;22.60;100.00;101382.78;2089139;28;20172;-62
2022/08/31 03:48:33;;;;;;;12.17;9.37;;;;;;;22.60;100.00;101388.41;2088648;28;20241;-63
2022/08/31 03:49:34;;;;;;;13.13;9.50;;;;;;;22.60;100.00;101385.59;2088399;28;20271;-62
2022/08/31 03:50:34;;;;;;;13.50;9.30;;;;;;;22.62;100.00;101385.84;2087630;28;20328;-62
2022/08/31 03:51:35;;;;;;;11.97;8.93;;;;;;;22.65;100.00;101384.88;2088162;28;20192;-63
2022/08/31 03:52:37;;;;;;;11.77;9.20;;;;;;;22.65;100.00;101379.22;2087865;28;20235;-63
2022/08/31 03:53:37;;;;;;;10.23;9.17;;;;;;;22.66;100.00;101380.78;2087428;28;20188;-62
2022/08/31 03:54:38;;;;;;;11.57;8.77;;;;;;;22.69;100.00;101390.31;2087879;28;20473;-63
2022/08/31 03:55:40;;;;;;;10.57;9.03;;;;;;;22.74;100.00;101383.94;2087829;28;20184;-62
2022/08/31 03:56:41;;;;;;;11.57;9.10;;;;;;;22.64;100.00;101365.59;2088655;28;20212;-62
2022/08/31 03:57:41;;;;;;;9.83;8.93;;;;;;;22.75;100.00;101386.28;2088160;28;20468;-63
2022/08/31 03:58:42;;;;;;;11.40;8.80;;;;;;;22.78;100.00;101390.91;2088199;28;20619;-62
2022/08/31 03:59:42;;;;;;;9.87;8.33;;;;;;;22.76;100.00;101385.00;2088019;28;20188;-63
2022/08/31 04:00:43;;;;;;;9.30;8.50;;;;;;;22.43;100.00;101330.16;2088256;28;20184;-62
2022/08/31 04:01:43;;;;;;;9.80;8.80;;;;;;;22.42;100.00;101323.72;2087904;28;20208;-63
2022/08/31 04:02:44;;;;;;;10.00;9.00;;;;;;;22.81;100.00;101386.31;2087589;28;20184;-62
2022/08/31 04:03:45;;;;;;;10.37;8.77;;;;;;;22.28;100.00;101306.88;2088027;28;20176;-62
2022/08/31 04:04:53;;;;;;;13.73;9.20;;;;;;;22.81;100.00;101383.50;2088500;28;20189;-62
2022/08/31 04:05:53;;;;;;;12.23;8.97;;;;;;;22.83;100.00;101389.44;2088139;28;20180;-62
2022/08/31 04:06:54;;;;;;;10.97;8.80;;;;;;;22.83;100.00;101384.53;2088117;28;20449;-62
2022/08/31 04:07:55;;;;;;;12.80;9.20;;;;;;;22.84;100.00;101385.31;2087983;28;20283;-62
2022/08/31 04:08:56;;;;;;;9.90;8.80;;;;;;;22.85;100.00;101386.88;2088361;28;20560;-62
2022/08/31 04:09:56;;;;;;;15.50;9.47;;;;;;;22.86;100.00;101382.75;2088107;28;20188;-62
2022/08/31 04:10:57;;;;;;;12.97;9.10;;;;;;;22.81;100.00;101383.50;2088195;28;20266;-62
2022/08/31 04:11:57;;;;;;;13.57;9.57;;;;;;;22.79;100.00;101380.41;2086833;28;20305;-62
2022/08/31 04:12:58;;;;;;;10.97;9.67;;;;;;;22.66;100.00;101374.34;2088173;28;20222;-62
2022/08/31 04:13:58;;;;;;;12.67;9.20;;;;;;;22.69;100.00;101376.97;2088881;28;20191;-62
2022/08/31 04:14:59;;;;;;;11.83;8.87;;;;;;;22.69;100.00;101391.09;2087425;28;20188;-62
2022/08/31 04:15:59;;;;;;;14.47;9.30;;;;;;;22.67;100.00;101382.31;2086639;28;20716;-62
2022/08/31 04:17:00;;;;;;;12.00;9.10;;;;;;;22.65;100.00;101387.72;2087162;28;20653;-62
2022/08/31 04:18:00;;;;;;;9.63;8.70;;;;;;;22.69;100.00;101384.66;2086683;28;20696;-62
2022/08/31 04:19:01;;;;;;;10.67;8.90;;;;;;;22.63;100.00;101392.31;2088663;28;20192;-63
2022/08/31 04:20:04;;;;;;;12.73;8.63;;;;;;;21.92;100.00;101274.41;2088399;28;20259;-62
2022/08/31 04:21:10;;;;;;;12.37;8.87;;;;;;;22.63;100.00;101381.75;2087930;28;20184;-62
2022/08/31 04:22:11;;;;;;;11.03;8.83;;;;;;;22.53;100.00;101388.88;2083456;28;20610;-61
2022/08/31 04:23:12;;;;;;;11.87;8.53;;;;;;;22.50;100.00;101386.22;2088127;28;20481;-61
2022/08/31 04:24:12;;;;;;;9.93;8.47;;;;;;;22.41;100.00;101381.50;2087335;28;20189;-61
2022/08/31 04:25:13;;;;;;;11.20;8.60;;;;;;;22.35;100.00;101379.88;2086896;28;20226;-61
2022/08/31 04:26:39;;;;;;;9.50;8.30;;;;;;;21.90;100.00;101315.69;2086384;28;20196;-61
2022/08/31 04:27:39;;;;;;;9.33;8.20;;;;;;;22.27;100.00;101390.06;2087415;28;20215;-61
2022/08/31 04:28:40;;;;;;;11.60;8.47;;;;;;;22.23;100.00;101383.84;2087407;28;20188;-61
2022/08/31 04:29:40;;;;;;;12.43;8.20;;;;;;;22.15;100.00;101368.59;2087902;28;20226;-61
2022/08/31 04:30:42;;;;;;;9.63;8.40;;;;;;;22.27;100.00;101393.63;2087426;28;20684;-61
2022/08/31 04:31:42;;;;;;;8.93;8.03;;;;;;;22.34;100.00;101398.88;2087617;28;20576;-61
2022/08/31 04:32:43;;;;;;;9.10;7.73;;;;;;;22.41;100.00;101403.31;2087464;28;20279;-61
2022/08/31 04:33:44;;;;;;;11.33;8.10;;;;;;;21.82;100.00;101303.25;2086974;28;20187;-61
2022/08/31 04:34:44;;;;;;;10.53;7.67;;;;;;;22.48;100.00;101402.91;2087280;28;20177;-61
2022/08/31 04:35:45;;;;;;;14.27;8.00;;;;;;;22.50;100.00;101414.47;2086797;28;20176;-61
2022/08/31 04:36:46;;;;;;;12.90;8.73;;;;;;;21.64;100.00;101267.59;2086643;28;20207;-61
2022/08/31 04:37:46;;;;;;;9.00;7.93;;;;;;;22.53;100.00;101391.69;2086628;28;20196;-61
2022/08/31 04:38:50;;;;;;;8.77;7.87;;;;;;;22.46;100.00;101400.56;2087597;28;20738;-61
2022/08/31 04:39:52;;;;;;;10.00;7.67;;;;;;;22.54;100.00;101398.09;2085500;28;20542;-61
2022/08/31 04:40:52;;;;;;;8.27;7.47;;;;;;;22.52;100.00;101390.13;2087396;28;20188;-61
2022/08/31 04:41:53;;;;;;;9.30;7.70;;;;;;;22.05;100.00;101316.38;2087932;28;20668;-61
2022/08/31 04:42:53;;;;;;;8.53;7.60;;;;;;;22.57;100.00;101394.28;2086157;28;20180;-62
2022/08/31 04:43:56;;;;;;;11.73;7.70;;;;;;;22.57;100.00;101397.13;2087438;28;20268;-61
2022/08/31 04:44:57;;;;;;;10.57;9.47;;;;;;;22.58;100.00;101396.63;2086676;28;20245;-61
2022/08/31 04:45:58;;;;;;;9.80;8.20;;;;;;;22.59;100.00;101395.34;2082386;28;20443;-61